Погода Урбанына 2 недели

Витебская область, Белоруссия

27 мая-08 июня
  • 27мая
    Сегодня
    +13°
    +27°
    Ясно и безоблачно
    ВремяПогодаТемператураВлажностьДавлениеВетер, м/сВероятность осадков
    00:00Практически безоблачно+15°C81 %757 мм2.5 м/с2 %
    03:00Практически безоблачно+14°C87 %757 мм2.5 м/с2 %
    06:00Ясно и безоблачно+15°C88 %757 мм1.6 м/с2 %
    09:00Ясно и безоблачно+22°C60 %758 мм1.0 м/с2 %
    12:00Ясно и безоблачно+26°C42 %757 мм1.1 м/с2 %
    15:00Ясно и безоблачно+26°C39 %757 мм1.0 м/с2 %
    18:00Ясно и безоблачно+25°C41 %756 мм2.1 м/с2 %
    21:00Ясно и безоблачно+21°C73 %755 мм2.1 м/с2 %
  • 28мая
    Вторник
    +12°
    +26°
    Пасмурно, дожди с грозами
    ВремяПогодаТемператураВлажностьДавлениеВетер, м/сВероятность осадков
    00:00Ясно и безоблачно+19°C72 %755 мм0.7 м/с2 %
    03:00Ясно и безоблачно+17°C86 %755 мм1.2 м/с2 %
    06:00Ясно и безоблачно+16°C91 %755 мм1.4 м/с2 %
    09:00Ясно и безоблачно+22°C62 %755 мм1.5 м/с2 %
    12:00Практически безоблачно+25°C47 %755 мм2.1 м/с14 %
    15:00Пасмурно, дожди с грозами+27°C54 %753 мм1.2 м/с53 %
    18:00Небольшая облачность, ливень+21°C83 %753 мм0.9 м/с63 %
    21:00Облачно с прояснениями+19°C90 %753 мм1.6 м/с15 %
  • 29мая
    Среда
    +14°
    +27°
    Ясно и безоблачно
    ВремяПогодаТемператураВлажностьДавлениеВетер, м/сВероятность осадков
    00:00Облачно с прояснениями+16°C94 %752 мм2.0 м/с2 %
    03:00Ясно и безоблачно+14°C98 %752 мм1.9 м/с2 %
    06:00Практически безоблачно+15°C96 %751 мм1.7 м/с2 %
    09:00Ясно и безоблачно+20°C80 %751 мм1.4 м/с2 %
    12:00Ясно и безоблачно+25°C49 %751 мм2.2 м/с4 %
    15:00Ясно и безоблачно+26°C36 %750 мм2.9 м/с18 %
    18:00Ясно и безоблачно+24°C39 %749 мм2.7 м/с23 %
    21:00Ясно и безоблачно+21°C66 %749 мм2.0 м/с5 %
  • 30мая
    Четверг
    +14°
    +26°
    Облачно с прояснениями
    ВремяПогодаТемператураВлажностьДавлениеВетер, м/сВероятность осадков
    00:00Ясно и безоблачно+16°C76 %748 мм2.6 м/с2 %
    03:00Ясно и безоблачно+15°C80 %748 мм1.8 м/с2 %
    06:00Ясно и безоблачно+15°C86 %748 мм1.4 м/с2 %
    09:00Облачно с прояснениями+21°C65 %748 мм1.7 м/с2 %
    12:00Облачно с прояснениями+25°C41 %748 мм3.5 м/с15 %
    15:00Облачно с прояснениями+25°C43 %748 мм3.8 м/с30 %
    18:00Облачно с прояснениями+24°C46 %747 мм2.7 м/с22 %
    21:00Облачно с прояснениями+21°C63 %747 мм2.3 м/с5 %
Мы используем cookies
Соглашаюсь